createdAt,value
2018-11-06T00:00:13.624Z,10.60
2018-11-06T00:02:42.552Z,10.60
2018-11-06T00:05:13.469Z,10.50
2018-11-06T00:07:42.893Z,10.50
2018-11-06T00:10:11.889Z,10.50
2018-11-06T00:12:41.052Z,10.50
2018-11-06T00:15:10.144Z,10.50
2018-11-06T00:17:39.344Z,10.50
2018-11-06T00:20:11.297Z,10.50
2018-11-06T00:22:40.032Z,10.40
2018-11-06T00:25:10.210Z,10.40
2018-11-06T00:27:39.519Z,10.50
2018-11-06T00:30:10.039Z,10.30
2018-11-06T00:32:39.545Z,10.30
2018-11-06T00:35:10.155Z,10.30
2018-11-06T00:37:39.137Z,10.30
2018-11-06T00:40:08.072Z,10.30
2018-11-06T00:42:37.016Z,10.30
2018-11-06T00:45:07.549Z,10.20
2018-11-06T00:47:36.396Z,10.20
2018-11-06T00:50:06.046Z,10.20
2018-11-06T00:52:34.800Z,10.10
2018-11-06T00:55:03.652Z,10.10
2018-11-06T00:57:32.374Z,10.10
2018-11-06T01:00:01.128Z,10.00
2018-11-06T01:02:29.911Z,10.00
2018-11-06T01:04:58.717Z,9.90
2018-11-06T01:07:28.376Z,10.00
2018-11-06T01:09:57.256Z,9.90
2018-11-06T01:12:26.139Z,10.00
2018-11-06T01:14:55.032Z,9.90
2018-11-06T01:17:23.745Z,9.90
2018-11-06T01:19:52.452Z,9.90
2018-11-06T01:22:21.282Z,9.80
2018-11-06T01:24:49.999Z,9.80
2018-11-06T01:27:18.910Z,9.80
2018-11-06T01:29:47.632Z,9.90
2018-11-06T01:32:16.424Z,9.80
2018-11-06T01:34:45.209Z,9.80
2018-11-06T01:37:14.028Z,9.70
2018-11-06T01:39:42.737Z,9.70
2018-11-06T01:42:11.500Z,9.80
2018-11-06T01:44:40.235Z,9.80
2018-11-06T01:47:09.034Z,9.70
2018-11-06T01:49:37.727Z,9.70
2018-11-06T01:52:06.436Z,9.70
2018-11-06T01:54:35.195Z,9.70
2018-11-06T01:57:03.996Z,9.80
2018-11-06T01:59:32.773Z,9.70
2018-11-06T02:02:01.517Z,9.70
2018-11-06T02:04:30.432Z,9.70
2018-11-06T02:06:59.168Z,9.70
2018-11-06T02:09:27.922Z,9.60
2018-11-06T02:11:56.636Z,9.70
2018-11-06T02:14:25.373Z,9.60
2018-11-06T02:16:54.257Z,9.60
2018-11-06T02:19:23.028Z,9.60
2018-11-06T02:21:51.753Z,9.60
2018-11-06T02:24:20.473Z,9.60
2018-11-06T02:26:49.235Z,9.60
2018-11-06T02:29:18.040Z,9.60
2018-11-06T02:31:46.759Z,9.50
2018-11-06T02:34:15.493Z,9.60
2018-11-06T02:36:44.229Z,9.60
2018-11-06T02:39:12.945Z,9.60
2018-11-06T02:44:16.863Z,9.60
2018-11-06T02:46:45.590Z,9.60
2018-11-06T02:49:14.311Z,9.60
2018-11-06T02:51:43.034Z,9.60
2018-11-06T02:54:11.745Z,9.60
2018-11-06T02:56:40.502Z,9.70
2018-11-06T02:59:09.186Z,9.60
2018-11-06T03:01:38.012Z,9.60
2018-11-06T03:04:07.030Z,9.60
2018-11-06T03:06:35.777Z,9.60
2018-11-06T03:09:06.462Z,9.60
2018-11-06T03:11:35.166Z,9.60
2018-11-06T03:14:03.999Z,9.70
2018-11-06T03:16:32.899Z,9.60
2018-11-06T03:19:01.722Z,9.70
2018-11-06T03:21:30.461Z,9.70
2018-11-06T03:23:59.239Z,9.70
2018-11-06T03:26:28.103Z,9.70
2018-11-06T03:28:56.827Z,9.70
2018-11-06T03:31:25.574Z,9.70
2018-11-06T03:33:54.369Z,9.70
2018-11-06T03:36:23.096Z,9.70
2018-11-06T03:38:51.905Z,9.70
2018-11-06T03:41:20.668Z,9.70
2018-11-06T03:43:49.456Z,9.70
2018-11-06T03:46:18.245Z,9.70
2018-11-06T03:48:46.958Z,9.70
2018-11-06T03:51:15.662Z,9.70
2018-11-06T03:53:44.963Z,9.80
2018-11-06T03:56:13.822Z,9.70
2018-11-06T03:58:42.687Z,9.70
2018-11-06T04:01:11.660Z,9.70
2018-11-06T04:03:40.407Z,9.70
2018-11-06T04:06:09.223Z,9.60
2018-11-06T04:08:38.058Z,9.60
2018-11-06T04:11:06.821Z,9.60
2018-11-06T04:13:35.611Z,9.50
2018-11-06T04:16:04.448Z,9.50
2018-11-06T04:18:33.265Z,9.60
2018-11-06T04:21:02.375Z,9.60
2018-11-06T04:23:31.229Z,9.60
2018-11-06T04:26:00.079Z,9.60
2018-11-06T04:28:28.828Z,9.60
2018-11-06T04:30:57.585Z,9.50
2018-11-06T04:36:04.391Z,9.50
2018-11-06T04:38:33.205Z,9.50
2018-11-06T04:41:01.978Z,9.50
2018-11-06T04:43:30.686Z,9.50
2018-11-06T04:45:59.423Z,9.50
2018-11-06T04:48:28.241Z,9.50
2018-11-06T04:50:57.000Z,9.40
2018-11-06T04:53:25.730Z,9.40
2018-11-06T04:55:54.537Z,9.40
2018-11-06T04:58:23.422Z,9.40
2018-11-06T05:00:52.128Z,9.30
2018-11-06T05:03:20.889Z,9.30
2018-11-06T05:05:49.621Z,9.30
2018-11-06T05:08:18.934Z,9.30
2018-11-06T05:10:47.675Z,9.30
2018-11-06T05:13:16.422Z,9.30
2018-11-06T05:15:45.364Z,9.30
2018-11-06T05:18:14.189Z,9.20
2018-11-06T05:20:42.916Z,9.30
2018-11-06T05:23:11.734Z,9.20
2018-11-06T05:25:40.592Z,9.20
2018-11-06T05:28:09.280Z,9.30
2018-11-06T05:30:45.463Z,9.20
2018-11-06T05:33:14.401Z,9.30
2018-11-06T05:35:43.216Z,9.30
2018-11-06T05:38:12.158Z,9.20
2018-11-06T05:40:56.617Z,9.20
2018-11-06T05:43:25.467Z,9.20
2018-11-06T05:45:54.563Z,9.20
2018-11-06T05:48:23.369Z,9.20
2018-11-06T05:50:52.043Z,9.10
2018-11-06T05:53:21.614Z,9.10
2018-11-06T05:55:50.476Z,9.30
2018-11-06T05:58:19.287Z,9.30
2018-11-06T06:00:48.448Z,9.30
2018-11-06T06:03:17.272Z,9.30
2018-11-06T06:05:46.153Z,9.30
2018-11-06T06:08:18.223Z,9.30
2018-11-06T06:10:47.066Z,9.30
2018-11-06T06:13:15.873Z,9.30
2018-11-06T06:15:44.633Z,9.20
2018-11-06T06:18:13.475Z,9.20
2018-11-06T06:20:43.351Z,9.20
2018-11-06T06:23:12.327Z,9.20
2018-11-06T06:25:41.209Z,9.10
2018-11-06T06:28:10.316Z,9.10
2018-11-06T06:30:39.500Z,9.20
2018-11-06T06:33:08.452Z,9.30
2018-11-06T06:35:37.342Z,9.30
2018-11-06T06:38:06.377Z,9.40
2018-11-06T06:40:35.494Z,11.20
2018-11-06T06:43:04.873Z,9.50
2018-11-06T06:45:33.778Z,9.60
2018-11-06T06:48:02.664Z,9.70
2018-11-06T06:50:31.500Z,9.90
2018-11-06T06:53:00.904Z,10.10
2018-11-06T06:55:29.745Z,10.40
2018-11-06T06:57:58.602Z,10.50
2018-11-06T07:00:27.466Z,10.70
2018-11-06T07:02:56.386Z,11.30
2018-11-06T07:05:25.205Z,12.10
2018-11-06T07:07:54.011Z,12.80
2018-11-06T07:10:23.274Z,13.10
2018-11-06T07:12:52.117Z,13.30
2018-11-06T07:15:22.007Z,13.80
2018-11-06T07:17:51.816Z,14.00
2018-11-06T07:20:22.161Z,14.10
2018-11-06T07:22:51.512Z,14.20
2018-11-06T07:25:20.706Z,14.00
2018-11-06T07:27:49.868Z,14.20
2018-11-06T07:30:20.054Z,14.10
2018-11-06T07:32:48.912Z,14.70
2018-11-06T07:35:18.432Z,14.90
2018-11-06T07:37:48.134Z,14.60
2018-11-06T07:40:18.448Z,14.40
2018-11-06T07:42:47.515Z,14.30
2018-11-06T07:45:18.045Z,14.10
2018-11-06T07:47:46.865Z,14.00
2018-11-06T07:50:15.969Z,13.80
2018-11-06T07:52:45.076Z,13.50
2018-11-06T07:55:17.526Z,13.50
2018-11-06T07:57:46.654Z,13.60
2018-11-06T08:00:23.128Z,13.60
2018-11-06T08:02:52.181Z,13.70
2018-11-06T08:05:21.117Z,15.80
2018-11-06T08:07:50.918Z,14.20
2018-11-06T08:10:19.710Z,14.40
2018-11-06T08:12:49.762Z,14.50
2018-11-06T08:15:19.368Z,14.50
2018-11-06T08:17:48.558Z,14.50
2018-11-06T08:20:17.422Z,14.50
2018-11-06T08:22:46.251Z,14.60
2018-11-06T08:25:15.902Z,14.70
2018-11-06T08:27:45.267Z,15.00
2018-11-06T08:30:14.428Z,15.20
2018-11-06T08:32:43.692Z,15.20
2018-11-06T08:35:13.861Z,15.40
2018-11-06T08:37:43.531Z,15.20
2018-11-06T08:40:14.320Z,15.20
2018-11-06T08:42:43.273Z,15.20
2018-11-06T08:45:13.317Z,15.20
2018-11-06T08:47:43.047Z,15.20
2018-11-06T08:50:13.116Z,15.10
2018-11-06T08:52:42.075Z,15.20
2018-11-06T08:55:12.092Z,15.10
2018-11-06T08:57:41.460Z,15.10
2018-11-06T09:00:13.987Z,15.20
2018-11-06T09:02:43.810Z,15.30
2018-11-06T09:05:14.672Z,15.30
2018-11-06T09:07:43.691Z,15.20
2018-11-06T09:10:13.608Z,15.20
2018-11-06T09:12:43.362Z,15.30
2018-11-06T09:15:13.725Z,15.40
2018-11-06T09:17:42.587Z,15.30
2018-11-06T09:20:13.625Z,15.20
2018-11-06T09:25:21.164Z,15.50
2018-11-06T09:27:49.924Z,15.60
2018-11-06T09:30:19.445Z,15.90
2018-11-06T09:32:49.032Z,16.00
2018-11-06T09:35:17.826Z,15.80
2018-11-06T09:37:46.614Z,15.80
2018-11-06T09:40:16.973Z,15.80
2018-11-06T09:42:45.788Z,15.80
2018-11-06T09:45:14.796Z,15.90
2018-11-06T09:47:43.564Z,15.90
2018-11-06T09:50:14.070Z,16.00
2018-11-06T09:52:43.356Z,16.20
2018-11-06T09:55:12.619Z,16.30
2018-11-06T09:57:41.386Z,16.30
2018-11-06T10:00:12.828Z,16.20
2018-11-06T10:02:41.647Z,16.30
2018-11-06T10:05:11.502Z,16.50
2018-11-06T10:07:40.364Z,16.70
2018-11-06T10:10:10.769Z,16.90
2018-11-06T10:12:40.738Z,16.90
2018-11-06T10:15:11.704Z,16.90
2018-11-06T10:17:41.577Z,17.20
2018-11-06T10:20:12.001Z,17.40
2018-11-06T10:22:40.751Z,17.40
2018-11-06T10:25:09.660Z,17.60
2018-11-06T10:27:39.088Z,17.60
2018-11-06T10:30:11.147Z,17.60
2018-11-06T10:32:39.941Z,17.40
2018-11-06T10:35:09.416Z,17.10
2018-11-06T10:37:38.231Z,16.90
2018-11-06T10:40:12.980Z,17.00
2018-11-06T10:42:41.844Z,17.10
2018-11-06T10:45:11.810Z,17.10
2018-11-06T10:47:40.721Z,17.30
2018-11-06T10:50:10.940Z,17.40
2018-11-06T10:52:39.812Z,17.50
2018-11-06T10:55:09.070Z,17.60
2018-11-06T10:57:38.960Z,17.80
2018-11-06T11:00:17.868Z,17.90
2018-11-06T11:02:52.277Z,17.90
2018-11-06T11:05:22.851Z,17.70
2018-11-06T11:07:51.680Z,17.60
2018-11-06T11:10:20.576Z,17.80
2018-11-06T11:12:49.562Z,18.10
2018-11-06T11:15:18.304Z,18.10
2018-11-06T11:17:47.072Z,18.00
2018-11-06T11:20:15.938Z,17.90
2018-11-06T11:22:44.923Z,17.70
2018-11-06T11:25:15.008Z,17.40
2018-11-06T11:27:44.470Z,17.60
2018-11-06T11:30:14.338Z,17.50
2018-11-06T11:32:44.626Z,17.50
2018-11-06T11:35:13.996Z,17.80
2018-11-06T11:37:42.970Z,18.00
2018-11-06T11:40:13.159Z,18.10
2018-11-06T11:42:42.244Z,18.00
2018-11-06T11:45:12.342Z,17.80
2018-11-06T11:47:41.293Z,17.70
2018-11-06T11:50:11.514Z,17.50
2018-11-06T11:52:40.455Z,17.60
2018-11-06T11:55:09.631Z,17.50
2018-11-06T11:57:38.817Z,17.50
2018-11-06T12:00:09.421Z,17.40
2018-11-06T12:02:44.890Z,17.40
2018-11-06T12:05:13.630Z,17.60
2018-11-06T12:07:42.391Z,17.30
2018-11-06T12:10:12.118Z,17.20
2018-11-06T12:12:41.087Z,17.10
2018-11-06T12:15:12.303Z,16.90
2018-11-06T12:17:41.492Z,17.20
2018-11-06T12:20:11.857Z,17.20
2018-11-06T12:22:40.941Z,17.30
2018-11-06T12:25:10.159Z,17.10
2018-11-06T12:27:38.873Z,17.20
2018-11-06T12:30:10.542Z,17.20
2018-11-06T12:32:39.934Z,17.50
2018-11-06T12:35:09.484Z,17.60
2018-11-06T12:37:38.395Z,17.70
2018-11-06T12:40:08.265Z,17.70
2018-11-06T12:42:37.667Z,17.80
2018-11-06T12:45:08.095Z,17.80
2018-11-06T12:47:36.842Z,18.00
2018-11-06T12:50:06.575Z,17.90
2018-11-06T12:52:35.441Z,17.90
2018-11-06T12:55:04.939Z,17.80
2018-11-06T12:57:33.667Z,17.50
2018-11-06T13:00:02.490Z,17.40
2018-11-06T13:02:31.228Z,17.30
2018-11-06T13:04:59.970Z,17.40
2018-11-06T13:07:28.745Z,17.30
2018-11-06T13:09:57.897Z,17.20
2018-11-06T13:12:26.648Z,17.30
2018-11-06T13:14:57.238Z,17.20
2018-11-06T13:17:25.131Z,17.20
2018-11-06T13:19:53.984Z,17.20
2018-11-06T13:22:22.867Z,17.20
2018-11-06T13:24:52.204Z,17.10
2018-11-06T13:27:21.100Z,17.10
2018-11-06T13:29:49.873Z,17.20
2018-11-06T13:32:18.699Z,16.80
2018-11-06T13:34:49.603Z,16.80
2018-11-06T13:37:19.929Z,16.70
2018-11-06T13:42:25.690Z,16.60
2018-11-06T13:44:54.819Z,16.60
2018-11-06T13:47:23.580Z,16.50
2018-11-06T13:49:56.431Z,16.40
2018-11-06T13:52:25.176Z,16.40
2018-11-06T13:54:53.876Z,16.40
2018-11-06T13:57:22.687Z,16.50
2018-11-06T13:59:51.552Z,16.50
2018-11-06T14:02:20.280Z,16.40
2018-11-06T14:04:49.393Z,16.50
2018-11-06T14:07:18.168Z,16.50
2018-11-06T14:09:47.079Z,16.60
2018-11-06T14:12:16.004Z,16.60
2018-11-06T14:14:44.745Z,16.50
2018-11-06T14:17:14.472Z,16.40
2018-11-06T14:19:43.251Z,16.30
2018-11-06T14:22:13.164Z,16.20
2018-11-06T14:24:41.999Z,16.20
2018-11-06T14:27:13.801Z,16.10
2018-11-06T14:29:42.897Z,16.10
2018-11-06T14:32:13.138Z,16.10
2018-11-06T14:34:43.378Z,16.10
2018-11-06T14:37:12.167Z,16.00
2018-11-06T14:39:41.152Z,15.90
2018-11-06T14:42:09.988Z,15.90
2018-11-06T14:44:38.757Z,15.90
2018-11-06T14:47:07.523Z,15.70
2018-11-06T14:49:36.397Z,15.50
2018-11-06T14:52:05.619Z,15.40
2018-11-06T14:54:34.572Z,15.30
2018-11-06T14:57:03.330Z,15.30
2018-11-06T14:59:32.351Z,15.30
2018-11-06T15:02:01.113Z,15.30
2018-11-06T15:04:30.258Z,15.30
2018-11-06T15:06:59.128Z,15.30
2018-11-06T15:09:29.231Z,15.20
2018-11-06T15:12:01.555Z,15.10
2018-11-06T15:14:30.660Z,15.00
2018-11-06T15:16:59.469Z,15.00
2018-11-06T15:19:30.032Z,14.90
2018-11-06T15:21:59.007Z,14.90
2018-11-06T15:24:29.248Z,14.90
2018-11-06T15:26:58.626Z,14.90
2018-11-06T15:29:28.757Z,14.90
2018-11-06T15:31:57.674Z,14.90
2018-11-06T15:34:27.586Z,14.80
2018-11-06T15:36:56.479Z,14.80
2018-11-06T15:39:25.683Z,14.80
2018-11-06T15:41:54.961Z,14.70
2018-11-06T15:44:23.625Z,14.60
2018-11-06T15:46:56.641Z,14.60
2018-11-06T15:49:33.171Z,14.60
2018-11-06T15:52:02.271Z,14.50
2018-11-06T15:54:35.677Z,15.40
2018-11-06T15:57:06.134Z,14.40
2018-11-06T15:59:35.073Z,14.40
2018-11-06T16:02:03.881Z,14.40
2018-11-06T16:04:32.855Z,14.30
2018-11-06T16:07:01.990Z,14.30
2018-11-06T16:09:33.311Z,14.30
2018-11-06T16:12:02.437Z,14.20
2018-11-06T16:14:36.316Z,14.20
2018-11-06T16:17:05.600Z,14.10
2018-11-06T16:19:34.685Z,14.10
2018-11-06T16:22:03.753Z,14.00
2018-11-06T16:24:32.953Z,13.80
2018-11-06T16:27:01.965Z,13.80
2018-11-06T16:29:31.252Z,13.70
2018-11-06T16:32:01.531Z,13.70
2018-11-06T16:34:32.746Z,13.70
2018-11-06T16:37:01.931Z,13.70
2018-11-06T16:42:09.484Z,13.70
2018-11-06T16:44:38.289Z,13.70
2018-11-06T16:47:10.761Z,13.70
2018-11-06T16:49:40.033Z,13.60
2018-11-06T16:52:09.735Z,13.50
2018-11-06T16:54:38.635Z,13.40
2018-11-06T16:57:07.553Z,13.40
2018-11-06T16:59:37.874Z,13.40
2018-11-06T17:02:06.582Z,13.40
2018-11-06T17:04:35.433Z,13.40
2018-11-06T17:07:05.528Z,13.50
2018-11-06T17:09:34.909Z,13.40
2018-11-06T17:12:06.401Z,13.40
2018-11-06T17:14:36.791Z,13.30
2018-11-06T17:17:08.099Z,13.30
2018-11-06T17:19:36.950Z,13.20
2018-11-06T17:22:05.749Z,13.10
2018-11-06T17:24:34.501Z,13.20
2018-11-06T17:27:03.413Z,13.10
2018-11-06T17:29:32.136Z,13.00
2018-11-06T17:32:01.104Z,13.00
2018-11-06T17:34:31.196Z,13.00
2018-11-06T17:37:10.605Z,13.00
2018-11-06T17:39:54.336Z,12.90
2018-11-06T17:42:30.793Z,12.90
2018-11-06T17:45:07.216Z,12.90
2018-11-06T17:47:44.676Z,12.80
2018-11-06T17:50:25.034Z,12.80
2018-11-06T17:52:57.605Z,12.80
2018-11-06T17:55:26.517Z,12.80
2018-11-06T17:57:55.291Z,12.70
2018-11-06T18:00:24.395Z,12.60
2018-11-06T18:02:53.298Z,12.60
2018-11-06T18:05:23.606Z,12.50
2018-11-06T18:07:52.367Z,12.50
2018-11-06T18:10:21.650Z,12.50
2018-11-06T18:12:55.208Z,12.60
2018-11-06T18:15:24.324Z,12.50
2018-11-06T18:17:58.036Z,12.50
2018-11-06T18:20:28.054Z,12.50
2018-11-06T18:23:02.241Z,12.60
2018-11-06T18:25:47.915Z,12.50
2018-11-06T18:28:19.902Z,12.50
2018-11-06T18:30:54.093Z,12.50
2018-11-06T18:33:25.024Z,12.50
2018-11-06T18:35:53.920Z,12.40
2018-11-06T18:38:23.299Z,12.40
2018-11-06T18:40:52.052Z,12.40
2018-11-06T18:43:21.318Z,12.40
2018-11-06T18:45:51.496Z,12.40
2018-11-06T18:48:23.758Z,12.30
2018-11-06T18:50:53.560Z,12.40
2018-11-06T18:53:27.936Z,12.40
2018-11-06T18:55:57.638Z,12.30
2018-11-06T18:58:35.040Z,12.30
2018-11-06T19:01:10.561Z,12.30
2018-11-06T19:03:42.481Z,12.20
2018-11-06T19:06:20.654Z,12.20
2018-11-06T19:08:54.041Z,12.10
2018-11-06T19:11:25.577Z,12.10
2018-11-06T19:13:58.863Z,12.00
2018-11-06T19:16:29.921Z,11.90
2018-11-06T19:18:58.961Z,11.80
2018-11-06T19:21:28.954Z,11.80
2018-11-06T19:23:57.821Z,11.80
2018-11-06T19:26:26.831Z,11.80
2018-11-06T19:28:55.760Z,11.80
2018-11-06T19:31:24.524Z,11.80
2018-11-06T19:33:53.448Z,11.80
2018-11-06T19:36:22.327Z,11.80
2018-11-06T19:38:51.050Z,11.80
2018-11-06T19:41:19.767Z,11.80
2018-11-06T19:43:48.957Z,11.80
2018-11-06T19:46:18.809Z,11.80
2018-11-06T19:48:47.894Z,11.80
2018-11-06T19:51:16.771Z,11.70
2018-11-06T19:53:45.803Z,11.70
2018-11-06T19:56:14.433Z,11.80
2018-11-06T19:58:43.322Z,11.80
2018-11-06T20:01:12.447Z,11.80
2018-11-06T20:03:41.278Z,11.80
2018-11-06T20:06:11.217Z,11.80
2018-11-06T20:08:40.409Z,11.70
2018-11-06T20:11:09.767Z,11.70
2018-11-06T20:16:17.764Z,11.70
2018-11-06T20:18:46.606Z,11.80
2018-11-06T20:21:15.373Z,11.70
2018-11-06T20:23:44.228Z,11.60
2018-11-06T20:26:12.971Z,11.70
2018-11-06T20:28:41.811Z,11.70
2018-11-06T20:31:11.492Z,11.70
2018-11-06T20:33:41.146Z,11.70
2018-11-06T20:36:10.599Z,11.70
2018-11-06T20:38:40.071Z,11.70
2018-11-06T20:41:09.037Z,11.70
2018-11-06T20:43:38.430Z,11.70
2018-11-06T20:46:07.662Z,11.60
2018-11-06T20:48:38.235Z,11.50
2018-11-06T20:51:07.154Z,11.40
2018-11-06T20:53:36.445Z,11.20
2018-11-06T20:56:06.125Z,11.20
2018-11-06T20:58:35.403Z,11.20
2018-11-06T21:01:04.711Z,11.10
2018-11-06T21:03:33.588Z,11.20
2018-11-06T21:06:03.048Z,11.10
2018-11-06T21:08:31.846Z,11.00
2018-11-06T21:11:01.965Z,10.90
2018-11-06T21:13:30.960Z,10.90
2018-11-06T21:16:00.013Z,10.90
2018-11-06T21:18:29.113Z,10.90
2018-11-06T21:20:59.712Z,11.00
2018-11-06T21:23:28.812Z,11.00
2018-11-06T21:25:57.832Z,11.00
2018-11-06T21:28:26.551Z,11.00
2018-11-06T21:30:55.294Z,11.00
2018-11-06T21:33:24.095Z,10.90
2018-11-06T21:35:52.952Z,10.90
2018-11-06T21:38:22.155Z,10.80
2018-11-06T21:40:51.027Z,10.80
2018-11-06T21:43:19.776Z,10.80
2018-11-06T21:45:48.602Z,10.80
2018-11-06T21:48:17.570Z,10.80
2018-11-06T21:50:46.791Z,10.70
2018-11-06T21:53:15.665Z,10.80
2018-11-06T21:55:44.999Z,10.80
2018-11-06T21:58:14.869Z,10.80
2018-11-06T22:00:43.957Z,10.80
2018-11-06T22:03:13.073Z,10.80
2018-11-06T22:05:41.930Z,10.80
2018-11-06T22:08:10.755Z,10.70
2018-11-06T22:10:39.705Z,10.80
2018-11-06T22:13:08.686Z,10.80
2018-11-06T22:15:37.450Z,10.70
2018-11-06T22:18:06.514Z,10.60
2018-11-06T22:20:35.785Z,10.60
2018-11-06T22:23:05.245Z,10.70
2018-11-06T22:25:33.991Z,10.70
2018-11-06T22:28:02.832Z,10.60
2018-11-06T22:30:31.777Z,10.60
2018-11-06T22:33:00.563Z,10.60
2018-11-06T22:35:29.669Z,10.60
2018-11-06T22:37:58.545Z,10.60
2018-11-06T22:40:27.379Z,10.60
2018-11-06T22:42:56.548Z,10.60
2018-11-06T22:45:25.508Z,10.60
2018-11-06T22:47:54.326Z,10.50
2018-11-06T22:50:23.449Z,10.50
2018-11-06T22:52:52.440Z,10.50
2018-11-06T22:55:21.439Z,10.50
2018-11-06T22:57:50.222Z,10.50
2018-11-06T23:00:24.646Z,10.50
2018-11-06T23:02:53.508Z,10.50
2018-11-06T23:05:22.290Z,10.50
2018-11-06T23:07:56.643Z,10.50
2018-11-06T23:10:25.477Z,10.40
2018-11-06T23:12:54.190Z,10.40
2018-11-06T23:15:23.085Z,10.40
2018-11-06T23:17:51.988Z,10.40
2018-11-06T23:20:20.855Z,10.40
2018-11-06T23:22:50.245Z,10.40
2018-11-06T23:25:19.047Z,10.50
2018-11-06T23:27:47.833Z,10.50
2018-11-06T23:30:16.707Z,10.40
2018-11-06T23:32:45.493Z,10.40
2018-11-06T23:35:14.231Z,10.40
2018-11-06T23:37:43.089Z,10.40
2018-11-06T23:40:12.064Z,10.40
2018-11-06T23:42:41.478Z,10.30
2018-11-06T23:45:10.509Z,10.20
2018-11-06T23:47:40.195Z,10.20
2018-11-06T23:50:09.563Z,10.30
2018-11-06T23:55:19.077Z,10.30
2018-11-06T23:57:48.188Z,10.40
